ESCF/LPI METAR and TAF weather

Enter ICAO airport designator
Station Type Date Time Source
ESCF METAR 2020/06/06 13:20 UTC NOAA

ESCF 061320Z AUTO 19013KT 9999 FEW022/// BKN058/// OVC072/// 13/09 Q0990


Station Type Date Time Source
ESCF Decoded METAR 2020/06/06 13:20 UTC NOAA

Linkoping / Malmen, Sweden (ESCF) 58-24N 015-31E 117M
Jun 06, 2020 - 09:20 AM EDT / 2020.06.06 1320 UTC
Wind: from the S (190 degrees) at 15 MPH (13 KT):0
Visibility: greater than 7 mile(s):0
Sky conditions: overcast
Temperature: 55 F (13 C)
Dew Point: 48 F (9 C)
Relative Humidity: 76%
Pressure (altimeter): 29.23 in. Hg (0990 hPa)
ob: ESCF 061320Z AUTO 19013KT 9999 FEW022/// BKN058/// OVC072/// 13/09 Q0990
cycle: 13

Station Type Date Time Source
ESCF TAF UTC NOAA

Error!

Example: see airport list